createdAt,value
2018-05-23T00:04:23.851Z,100099
2018-05-23T00:09:25.370Z,100100
2018-05-23T00:14:27.636Z,100101
2018-05-23T00:19:29.404Z,100100
2018-05-23T00:24:30.933Z,100104
2018-05-23T00:29:32.465Z,100111
2018-05-23T00:34:34.709Z,100102
2018-05-23T00:39:36.208Z,100107
2018-05-23T00:44:38.463Z,100106
2018-05-23T00:49:39.971Z,100110
2018-05-23T00:55:00.002Z,100101
2018-05-23T01:00:01.539Z,100107
2018-05-23T01:05:03.881Z,100105
2018-05-23T01:10:05.447Z,100100
2018-05-23T01:15:06.939Z,100097
2018-05-23T01:20:08.455Z,100098
2018-05-23T01:25:10.098Z,100100
2018-05-23T01:30:11.617Z,100106
2018-05-23T01:35:13.106Z,100099
2018-05-23T01:40:14.602Z,100101
2018-05-23T01:45:16.851Z,100110
2018-05-23T01:50:18.367Z,100106
2018-05-23T01:55:19.903Z,100114
2018-05-23T02:00:21.429Z,100115
2018-05-23T02:05:22.949Z,100115
2018-05-23T02:10:25.345Z,100119
2018-05-23T02:15:27.598Z,100130
2018-05-23T02:20:29.151Z,100136
2018-05-23T02:25:30.682Z,100131
2018-05-23T02:30:32.169Z,100118
2018-05-23T02:35:33.663Z,100124
2018-05-23T02:40:35.179Z,100121
2018-05-23T02:45:36.696Z,100124
2018-05-23T02:50:38.303Z,100129
2018-05-23T02:55:40.571Z,100119
2018-05-23T03:00:42.073Z,100129
2018-05-23T03:05:43.853Z,100129
2018-05-23T03:10:45.412Z,100135
2018-05-23T03:15:46.951Z,100135
2018-05-23T03:20:48.467Z,100142
2018-05-23T03:25:50.006Z,100144
2018-05-23T03:30:51.520Z,100151
2018-05-23T03:35:53.062Z,100146
2018-05-23T03:40:54.545Z,100154
2018-05-23T03:45:56.236Z,100156
2018-05-23T03:50:57.764Z,100164
2018-05-23T03:55:59.252Z,100169
2018-05-23T04:01:19.404Z,100163
2018-05-23T04:06:40.340Z,100171
2018-05-23T04:11:42.590Z,100181
2018-05-23T04:16:44.140Z,100181
2018-05-23T04:21:45.699Z,100182
2018-05-23T04:26:47.195Z,100199
2018-05-23T04:31:48.733Z,100207
2018-05-23T04:36:50.238Z,100209
2018-05-23T04:41:51.750Z,100221
2018-05-23T04:46:53.439Z,100227
2018-05-23T04:51:54.968Z,100235
2018-05-23T04:56:57.231Z,100242
2018-05-23T05:01:58.724Z,100243
2018-05-23T05:07:00.925Z,100251
2018-05-23T05:12:02.582Z,100259
2018-05-23T05:17:04.217Z,100255
2018-05-23T05:22:05.717Z,100264
2018-05-23T05:27:08.014Z,100263
2018-05-23T05:32:09.538Z,100271
2018-05-23T05:37:10.988Z,100272
2018-05-23T05:42:12.473Z,100271
2018-05-23T05:47:14.079Z,100279
2018-05-23T05:52:15.617Z,100290
2018-05-23T05:57:17.127Z,100289
2018-05-23T06:02:18.670Z,100301
2018-05-23T06:07:20.922Z,100313
2018-05-23T06:12:22.432Z,100318
2018-05-23T06:17:23.991Z,100312
2018-05-23T06:22:26.301Z,100315
2018-05-23T06:27:27.933Z,100314
2018-05-23T06:32:30.231Z,100325
2018-05-23T06:37:32.501Z,100332
2018-05-23T06:42:34.060Z,100331
2018-05-23T06:47:35.549Z,100330
2018-05-23T06:52:37.806Z,100334
2018-05-23T06:57:39.393Z,100340
2018-05-23T07:02:41.679Z,100353
2018-05-23T07:07:43.972Z,100360
2018-05-23T07:12:45.496Z,100373
2018-05-23T07:17:47.088Z,100371
2018-05-23T07:22:49.294Z,100377
2018-05-23T07:27:51.547Z,100376
2018-05-23T07:32:53.053Z,100377
2018-05-23T07:37:54.615Z,100381
2018-05-23T07:42:56.983Z,100387
2018-05-23T07:47:58.508Z,100398
2018-05-23T07:53:00.040Z,100397
2018-05-23T07:58:02.332Z,100395
2018-05-23T08:03:03.864Z,100398
2018-05-23T08:08:05.330Z,100398
2018-05-23T08:13:06.895Z,100400
2018-05-23T08:18:08.432Z,100409
2018-05-23T08:23:09.930Z,100425
2018-05-23T08:28:11.413Z,100428
2018-05-23T08:33:12.935Z,100431
2018-05-23T08:38:14.434Z,100439
2018-05-23T08:43:15.939Z,100437
2018-05-23T08:48:18.141Z,100427
2018-05-23T08:53:19.668Z,100423
2018-05-23T08:58:21.907Z,100434
2018-05-23T09:03:23.450Z,100441
2018-05-23T09:08:25.709Z,100442
2018-05-23T09:13:28.044Z,100437
2018-05-23T09:18:29.506Z,100438
2018-05-23T09:23:31.062Z,100436
2018-05-23T09:28:32.584Z,100439
2018-05-23T09:33:34.055Z,100454
2018-05-23T09:38:35.573Z,100451
2018-05-23T09:43:37.196Z,100444
2018-05-23T09:48:38.686Z,100445
2018-05-23T09:53:40.182Z,100440
2018-05-23T09:58:41.770Z,100440
2018-05-23T10:03:43.386Z,100438
2018-05-23T10:08:44.874Z,100428
2018-05-23T10:13:46.472Z,100428
2018-05-23T10:18:48.100Z,100427
2018-05-23T10:23:49.629Z,100435
2018-05-23T10:28:51.146Z,100426
2018-05-23T10:33:52.733Z,100434
2018-05-23T10:38:54.325Z,100424
2018-05-23T10:43:55.935Z,100430
2018-05-23T10:48:58.232Z,100429
2018-05-23T10:53:59.832Z,100427
2018-05-23T10:59:01.387Z,100432
2018-05-23T11:04:03.010Z,100431
2018-05-23T11:09:05.415Z,100419
2018-05-23T11:14:06.943Z,100423
2018-05-23T11:19:08.475Z,100420
2018-05-23T11:24:10.257Z,100414
2018-05-23T11:29:11.880Z,100412
2018-05-23T11:34:14.631Z,100418
2018-05-23T11:39:16.267Z,100406
2018-05-23T11:44:17.792Z,100399
2018-05-23T11:49:19.329Z,100403
2018-05-23T11:54:20.864Z,100401
2018-05-23T11:59:23.167Z,100390
2018-05-23T12:04:24.681Z,100389
2018-05-23T12:09:26.189Z,100371
2018-05-23T12:14:28.740Z,100374
2018-05-23T12:19:30.373Z,100381
2018-05-23T12:24:31.841Z,100371
2018-05-23T12:29:33.385Z,100361
2018-05-23T12:34:34.948Z,100349
2018-05-23T12:39:37.264Z,100360
2018-05-23T12:44:38.824Z,100353
2018-05-23T12:49:40.496Z,100344
2018-05-23T12:54:42.019Z,100344
2018-05-23T12:59:43.565Z,100348
2018-05-23T13:04:45.157Z,100348
2018-05-23T13:09:46.728Z,100348
2018-05-23T13:14:48.301Z,100342
2018-05-23T13:19:49.802Z,100344
2018-05-23T13:24:51.320Z,100330
2018-05-23T13:29:52.776Z,100314
2018-05-23T13:34:54.310Z,100311
2018-05-23T13:39:55.857Z,100317
2018-05-23T13:45:04.983Z,100312
2018-05-23T13:50:06.718Z,100300
2018-05-23T13:55:08.272Z,100284
2018-05-23T14:00:10.470Z,100285
2018-05-23T14:05:11.985Z,100287
2018-05-23T14:10:14.338Z,100287
2018-05-23T14:15:15.924Z,100285
2018-05-23T14:20:17.464Z,100277
2018-05-23T14:25:18.963Z,100289
2018-05-23T14:30:20.456Z,100274
2018-05-23T14:35:22.755Z,100289
2018-05-23T14:40:24.276Z,100298
2018-05-23T14:45:25.740Z,100311
2018-05-23T14:50:27.302Z,100310
2018-05-23T14:55:28.896Z,100311
2018-05-23T15:00:31.214Z,100341
2018-05-23T15:05:32.768Z,100326
2018-05-23T15:10:34.404Z,100344
2018-05-23T15:15:35.953Z,100336
2018-05-23T15:20:37.451Z,100351
2018-05-23T15:25:39.699Z,100350
2018-05-23T15:30:41.380Z,100354
2018-05-23T15:35:43.774Z,100349
2018-05-23T15:40:45.414Z,100340
2018-05-23T15:45:46.985Z,100347
2018-05-23T15:50:48.585Z,100352
2018-05-23T15:55:50.131Z,100351
2018-05-23T16:00:51.693Z,100360
2018-05-23T16:05:53.323Z,100374
2018-05-23T16:10:55.556Z,100375
2018-05-23T16:15:57.134Z,100387
2018-05-23T16:20:58.684Z,100393
2018-05-23T16:26:00.206Z,100390
2018-05-23T16:31:02.601Z,100395
2018-05-23T16:36:04.883Z,100413
2018-05-23T16:41:07.236Z,100403
2018-05-23T16:46:08.763Z,100410
2018-05-23T16:51:10.316Z,100424
2018-05-23T16:56:12.618Z,100420
2018-05-23T17:01:15.110Z,100417
2018-05-23T17:06:16.641Z,100425
2018-05-23T17:11:18.245Z,100438
2018-05-23T17:16:19.801Z,100458
2018-05-23T17:21:21.346Z,100474
2018-05-23T17:26:22.890Z,100462
2018-05-23T17:31:24.420Z,100474
2018-05-23T17:36:25.945Z,100468
2018-05-23T17:41:28.494Z,100470
2018-05-23T17:46:30.069Z,100466
2018-05-23T17:51:31.635Z,100471
2018-05-23T17:56:33.238Z,100466
2018-05-23T18:01:34.886Z,100458
2018-05-23T18:06:36.696Z,100460
2018-05-23T18:11:38.450Z,100462
2018-05-23T18:16:40.961Z,100464
2018-05-23T18:21:42.492Z,100470
2018-05-23T18:26:44.059Z,100471
2018-05-23T18:31:45.595Z,100477
2018-05-23T18:36:47.171Z,100480
2018-05-23T18:41:49.273Z,100481
2018-05-23T18:46:52.629Z,100480
2018-05-23T18:51:54.875Z,100479
2018-05-23T18:56:56.404Z,100481
2018-05-23T19:01:57.936Z,100485
2018-05-23T19:06:59.615Z,100495
2018-05-23T19:12:01.939Z,100488
2018-05-23T19:17:03.503Z,100486
2018-05-23T19:22:05.070Z,100482
2018-05-23T19:27:06.611Z,100485
2018-05-23T19:32:08.953Z,100482
2018-05-23T19:37:10.560Z,100486
2018-05-23T19:42:12.536Z,100480
2018-05-23T19:47:14.099Z,100489
2018-05-23T19:52:15.636Z,100487
2018-05-23T19:57:17.194Z,100484
2018-05-23T20:02:18.768Z,100486
2018-05-23T20:07:20.354Z,100481
2018-05-23T20:12:21.942Z,100478
2018-05-23T20:17:23.560Z,100482
2018-05-23T20:22:25.099Z,100478
2018-05-23T20:27:26.938Z,100480
2018-05-23T20:32:28.442Z,100497
2018-05-23T20:37:30.791Z,100490
2018-05-23T20:42:32.335Z,100496
2018-05-23T20:47:33.956Z,100501
2018-05-23T20:52:35.505Z,100507
2018-05-23T20:57:37.196Z,100516
2018-05-23T21:02:39.037Z,100517
2018-05-23T21:07:40.624Z,100519
2018-05-23T21:12:42.166Z,100508
2018-05-23T21:17:43.723Z,100505
2018-05-23T21:22:45.421Z,100513
2018-05-23T21:27:47.212Z,100513
2018-05-23T21:32:48.639Z,100509
2018-05-23T21:38:12.968Z,100501
2018-05-23T21:43:14.661Z,100502
2018-05-23T21:48:16.345Z,100503
2018-05-23T21:53:18.598Z,100503
2018-05-23T21:58:20.259Z,100499
2018-05-23T22:03:21.865Z,100493
2018-05-23T22:08:24.568Z,100496
2018-05-23T22:13:26.901Z,100495
2018-05-23T22:18:28.531Z,100497
2018-05-23T22:23:42.224Z,100492
2018-05-23T22:28:45.875Z,100484
2018-05-23T22:34:00.467Z,100476
2018-05-23T22:44:47.679Z,100468
2018-05-23T22:49:49.536Z,100469
2018-05-23T22:54:52.035Z,100465
2018-05-23T22:59:53.712Z,100475
2018-05-23T23:04:56.083Z,100478
2018-05-23T23:09:57.876Z,100470
2018-05-23T23:14:59.627Z,100471
2018-05-23T23:20:02.144Z,100461
2018-05-23T23:25:03.908Z,100468
2018-05-23T23:30:05.386Z,100473
2018-05-23T23:35:07.136Z,100462
2018-05-23T23:40:09.442Z,100448
2018-05-23T23:45:10.968Z,100459
2018-05-23T23:50:12.668Z,100460
2018-05-23T23:55:15.167Z,100460
